sensor_id;sensor_type;location;lat;lon;timestamp;temperature;humidity
22996;DHT22;11664;49.774;8.650;2024-03-07T00:00:55;6.50;99.90
22996;DHT22;11664;49.774;8.650;2024-03-07T00:03:21;6.40;99.90
22996;DHT22;11664;49.774;8.650;2024-03-07T00:05:49;6.40;99.90
22996;DHT22;11664;49.774;8.650;2024-03-07T00:08:15;6.30;99.90
22996;DHT22;11664;49.774;8.650;2024-03-07T00:10:41;6.30;99.90
22996;DHT22;11664;49.774;8.650;2024-03-07T00:13:09;6.30;99.90
22996;DHT22;11664;49.774;8.650;2024-03-07T00:15:35;6.30;99.90
22996;DHT22;11664;49.774;8.650;2024-03-07T00:18:00;6.40;99.90
22996;DHT22;11664;49.774;8.650;2024-03-07T00:20:26;6.50;99.90
22996;DHT22;11664;49.774;8.650;2024-03-07T00:22:51;6.50;99.90
22996;DHT22;11664;49.774;8.650;2024-03-07T00:25:17;6.40;99.90
22996;DHT22;11664;49.774;8.650;2024-03-07T00:27:45;6.30;99.90
22996;DHT22;11664;49.774;8.650;2024-03-07T00:30:11;6.30;99.90
22996;DHT22;11664;49.774;8.650;2024-03-07T00:32:39;6.40;99.90
22996;DHT22;11664;49.774;8.650;2024-03-07T00:35:06;6.30;99.90
22996;DHT22;11664;49.774;8.650;2024-03-07T00:37:32;6.30;99.90
22996;DHT22;11664;49.774;8.650;2024-03-07T00:39:57;6.20;99.90
22996;DHT22;11664;49.774;8.650;2024-03-07T00:42:23;6.20;99.90
22996;DHT22;11664;49.774;8.650;2024-03-07T00:44:49;6.10;99.90
22996;DHT22;11664;49.774;8.650;2024-03-07T00:47:17;6.00;99.90
22996;DHT22;11664;49.774;8.650;2024-03-07T00:49:46;5.80;99.90
22996;DHT22;11664;49.774;8.650;2024-03-07T00:52:14;5.70;99.90
22996;DHT22;11664;49.774;8.650;2024-03-07T00:54:40;5.50;99.90
22996;DHT22;11664;49.774;8.650;2024-03-07T00:57:06;5.40;99.90
22996;DHT22;11664;49.774;8.650;2024-03-07T00:59:33;5.30;99.90
22996;DHT22;11664;49.774;8.650;2024-03-07T01:01:58;5.20;99.90
22996;DHT22;11664;49.774;8.650;2024-03-07T01:04:24;5.10;99.90
22996;DHT22;11664;49.774;8.650;2024-03-07T01:06:56;5.00;99.90
22996;DHT22;11664;49.774;8.650;2024-03-07T01:09:23;4.90;99.90
22996;DHT22;11664;49.774;8.650;2024-03-07T01:11:48;4.80;99.90
22996;DHT22;11664;49.774;8.650;2024-03-07T01:14:15;4.70;99.90
22996;DHT22;11664;49.774;8.650;2024-03-07T01:16:40;4.60;99.90
22996;DHT22;11664;49.774;8.650;2024-03-07T01:19:06;4.60;99.90
22996;DHT22;11664;49.774;8.650;2024-03-07T01:21:33;4.60;99.90
22996;DHT22;11664;49.774;8.650;2024-03-07T01:24:00;4.50;99.90
22996;DHT22;11664;49.774;8.650;2024-03-07T01:26:28;4.50;99.90
22996;DHT22;11664;49.774;8.650;2024-03-07T01:28:55;4.40;99.90
22996;DHT22;11664;49.774;8.650;2024-03-07T01:31:22;4.40;99.90
22996;DHT22;11664;49.774;8.650;2024-03-07T01:33:48;4.30;99.90
22996;DHT22;11664;49.774;8.650;2024-03-07T01:36:13;4.30;99.90
22996;DHT22;11664;49.774;8.650;2024-03-07T01:38:39;4.20;99.90
22996;DHT22;11664;49.774;8.650;2024-03-07T01:41:04;4.20;99.90
22996;DHT22;11664;49.774;8.650;2024-03-07T01:43:30;4.10;99.90
22996;DHT22;11664;49.774;8.650;2024-03-07T01:45:57;4.00;99.90
22996;DHT22;11664;49.774;8.650;2024-03-07T01:48:28;4.00;99.90
22996;DHT22;11664;49.774;8.650;2024-03-07T01:50:55;3.90;99.90
22996;DHT22;11664;49.774;8.650;2024-03-07T01:53:22;3.90;99.90
22996;DHT22;11664;49.774;8.650;2024-03-07T01:55:48;3.90;99.90
22996;DHT22;11664;49.774;8.650;2024-03-07T01:58:18;3.80;99.90
22996;DHT22;11664;49.774;8.650;2024-03-07T02:00:44;3.80;99.90
22996;DHT22;11664;49.774;8.650;2024-03-07T02:03:10;3.70;99.90
22996;DHT22;11664;49.774;8.650;2024-03-07T02:05:35;3.70;99.90
22996;DHT22;11664;49.774;8.650;2024-03-07T02:08:01;3.70;99.90
22996;DHT22;11664;49.774;8.650;2024-03-07T02:10:27;3.70;99.90
22996;DHT22;11664;49.774;8.650;2024-03-07T02:13:02;3.70;99.90
22996;DHT22;11664;49.774;8.650;2024-03-07T02:15:28;3.70;99.90
22996;DHT22;11664;49.774;8.650;2024-03-07T02:17:53;3.50;99.90
22996;DHT22;11664;49.774;8.650;2024-03-07T02:20:19;3.50;99.90
22996;DHT22;11664;49.774;8.650;2024-03-07T02:22:44;3.50;99.90
22996;DHT22;11664;49.774;8.650;2024-03-07T02:25:10;3.40;99.90
22996;DHT22;11664;49.774;8.650;2024-03-07T02:27:36;3.40;99.90
22996;DHT22;11664;49.774;8.650;2024-03-07T02:30:03;3.40;99.90
22996;DHT22;11664;49.774;8.650;2024-03-07T02:32:31;3.40;99.90
22996;DHT22;11664;49.774;8.650;2024-03-07T02:34:57;3.30;99.90
22996;DHT22;11664;49.774;8.650;2024-03-07T02:37:22;3.30;99.90
22996;DHT22;11664;49.774;8.650;2024-03-07T02:39:48;3.30;99.90
22996;DHT22;11664;49.774;8.650;2024-03-07T02:42:13;3.30;99.90
22996;DHT22;11664;49.774;8.650;2024-03-07T02:44:39;3.30;99.90
22996;DHT22;11664;49.774;8.650;2024-03-07T02:47:06;3.10;99.90
22996;DHT22;11664;49.774;8.650;2024-03-07T02:49:32;3.00;99.90
22996;DHT22;11664;49.774;8.650;2024-03-07T02:51:57;3.00;99.90
22996;DHT22;11664;49.774;8.650;2024-03-07T02:54:23;3.00;99.90
22996;DHT22;11664;49.774;8.650;2024-03-07T02:56:48;3.00;99.90
22996;DHT22;11664;49.774;8.650;2024-03-07T02:59:14;2.90;99.90
22996;DHT22;11664;49.774;8.650;2024-03-07T03:01:39;2.90;99.90
22996;DHT22;11664;49.774;8.650;2024-03-07T03:04:05;2.80;99.90
22996;DHT22;11664;49.774;8.650;2024-03-07T03:06:30;2.80;99.90
22996;DHT22;11664;49.774;8.650;2024-03-07T03:08:57;2.70;99.90
22996;DHT22;11664;49.774;8.650;2024-03-07T03:11:23;2.80;99.90
22996;DHT22;11664;49.774;8.650;2024-03-07T03:13:51;2.80;99.90
22996;DHT22;11664;49.774;8.650;2024-03-07T03:16:16;2.80;99.90
22996;DHT22;11664;49.774;8.650;2024-03-07T03:18:42;2.70;99.90
22996;DHT22;11664;49.774;8.650;2024-03-07T03:21:07;2.60;99.90
22996;DHT22;11664;49.774;8.650;2024-03-07T03:23:33;2.50;99.90
22996;DHT22;11664;49.774;8.650;2024-03-07T03:26:00;2.40;99.90
22996;DHT22;11664;49.774;8.650;2024-03-07T03:28:25;2.60;99.90
22996;DHT22;11664;49.774;8.650;2024-03-07T03:30:51;2.50;99.90
22996;DHT22;11664;49.774;8.650;2024-03-07T03:33:17;2.40;99.90
22996;DHT22;11664;49.774;8.650;2024-03-07T03:35:43;2.40;99.90
22996;DHT22;11664;49.774;8.650;2024-03-07T03:38:08;2.40;99.90
22996;DHT22;11664;49.774;8.650;2024-03-07T03:40:35;2.20;99.90
22996;DHT22;11664;49.774;8.650;2024-03-07T03:43:00;2.20;99.90
22996;DHT22;11664;49.774;8.650;2024-03-07T03:45:26;2.20;99.90
22996;DHT22;11664;49.774;8.650;2024-03-07T03:47:52;2.30;99.90
22996;DHT22;11664;49.774;8.650;2024-03-07T03:50:18;2.30;99.90
22996;DHT22;11664;49.774;8.650;2024-03-07T03:52:44;2.30;99.90
22996;DHT22;11664;49.774;8.650;2024-03-07T03:55:10;2.30;99.90
22996;DHT22;11664;49.774;8.650;2024-03-07T03:57:41;2.20;99.90
22996;DHT22;11664;49.774;8.650;2024-03-07T04:00:08;2.30;99.90
22996;DHT22;11664;49.774;8.650;2024-03-07T04:02:51;2.20;99.90
22996;DHT22;11664;49.774;8.650;2024-03-07T04:05:19;2.20;99.90
22996;DHT22;11664;49.774;8.650;2024-03-07T04:07:45;2.20;99.90
22996;DHT22;11664;49.774;8.650;2024-03-07T04:10:11;2.20;99.90
22996;DHT22;11664;49.774;8.650;2024-03-07T04:12:39;2.10;99.90
22996;DHT22;11664;49.774;8.650;2024-03-07T04:15:11;2.10;99.90
22996;DHT22;11664;49.774;8.650;2024-03-07T04:17:37;2.00;99.90
22996;DHT22;11664;49.774;8.650;2024-03-07T04:20:04;1.90;99.90
22996;DHT22;11664;49.774;8.650;2024-03-07T04:22:36;2.00;99.90
22996;DHT22;11664;49.774;8.650;2024-03-07T04:25:06;2.00;99.90
22996;DHT22;11664;49.774;8.650;2024-03-07T04:27:33;1.90;99.90
22996;DHT22;11664;49.774;8.650;2024-03-07T04:30:04;1.80;99.90
22996;DHT22;11664;49.774;8.650;2024-03-07T04:32:30;1.70;99.90
22996;DHT22;11664;49.774;8.650;2024-03-07T04:34:56;1.70;99.90
22996;DHT22;11664;49.774;8.650;2024-03-07T04:37:26;1.90;99.90
22996;DHT22;11664;49.774;8.650;2024-03-07T04:39:53;1.80;99.90
22996;DHT22;11664;49.774;8.650;2024-03-07T04:42:18;1.80;99.90
22996;DHT22;11664;49.774;8.650;2024-03-07T04:44:44;1.90;99.90
22996;DHT22;11664;49.774;8.650;2024-03-07T04:47:10;1.80;99.90
22996;DHT22;11664;49.774;8.650;2024-03-07T04:49:35;1.80;99.90
22996;DHT22;11664;49.774;8.650;2024-03-07T04:52:02;1.90;99.90
22996;DHT22;11664;49.774;8.650;2024-03-07T04:54:29;1.90;99.90
22996;DHT22;11664;49.774;8.650;2024-03-07T04:56:55;1.80;99.90
22996;DHT22;11664;49.774;8.650;2024-03-07T04:59:21;1.70;99.90
22996;DHT22;11664;49.774;8.650;2024-03-07T05:01:48;1.70;99.90
22996;DHT22;11664;49.774;8.650;2024-03-07T05:04:17;1.60;99.90
22996;DHT22;11664;49.774;8.650;2024-03-07T05:06:44;1.60;99.90
22996;DHT22;11664;49.774;8.650;2024-03-07T05:09:10;1.60;99.90
22996;DHT22;11664;49.774;8.650;2024-03-07T05:11:49;1.50;99.90
22996;DHT22;11664;49.774;8.650;2024-03-07T05:14:17;1.60;99.90
22996;DHT22;11664;49.774;8.650;2024-03-07T05:16:42;1.60;99.90
22996;DHT22;11664;49.774;8.650;2024-03-07T05:19:09;1.60;99.90
22996;DHT22;11664;49.774;8.650;2024-03-07T05:21:34;1.70;99.90
22996;DHT22;11664;49.774;8.650;2024-03-07T05:24:05;1.70;99.90
22996;DHT22;11664;49.774;8.650;2024-03-07T05:26:31;1.60;99.90
22996;DHT22;11664;49.774;8.650;2024-03-07T05:29:03;1.60;99.90
22996;DHT22;11664;49.774;8.650;2024-03-07T05:31:34;1.70;99.90
22996;DHT22;11664;49.774;8.650;2024-03-07T05:34:04;1.80;99.90
22996;DHT22;11664;49.774;8.650;2024-03-07T05:36:32;1.60;99.90
22996;DHT22;11664;49.774;8.650;2024-03-07T05:38:58;1.80;99.90
22996;DHT22;11664;49.774;8.650;2024-03-07T05:41:24;1.70;99.90
22996;DHT22;11664;49.774;8.650;2024-03-07T05:43:55;1.70;99.90
22996;DHT22;11664;49.774;8.650;2024-03-07T05:46:22;1.60;99.90
22996;DHT22;11664;49.774;8.650;2024-03-07T05:48:47;1.70;99.90
22996;DHT22;11664;49.774;8.650;2024-03-07T05:51:17;1.70;99.90
22996;DHT22;11664;49.774;8.650;2024-03-07T05:53:43;1.80;99.90
22996;DHT22;11664;49.774;8.650;2024-03-07T05:56:08;1.90;99.90
22996;DHT22;11664;49.774;8.650;2024-03-07T05:58:34;2.00;99.90
22996;DHT22;11664;49.774;8.650;2024-03-07T06:01:00;1.90;99.90
22996;DHT22;11664;49.774;8.650;2024-03-07T06:03:26;1.90;99.90
22996;DHT22;11664;49.774;8.650;2024-03-07T06:05:52;1.80;99.90
22996;DHT22;11664;49.774;8.650;2024-03-07T06:08:19;1.70;99.90
22996;DHT22;11664;49.774;8.650;2024-03-07T06:10:45;1.80;99.90
22996;DHT22;11664;49.774;8.650;2024-03-07T06:13:13;1.70;99.90
22996;DHT22;11664;49.774;8.650;2024-03-07T06:15:39;1.70;99.90
22996;DHT22;11664;49.774;8.650;2024-03-07T06:18:08;1.80;99.90
22996;DHT22;11664;49.774;8.650;2024-03-07T06:20:34;1.70;99.90
22996;DHT22;11664;49.774;8.650;2024-03-07T06:23:01;1.70;99.90
22996;DHT22;11664;49.774;8.650;2024-03-07T06:25:40;1.70;99.90
22996;DHT22;11664;49.774;8.650;2024-03-07T06:28:13;1.60;99.90
22996;DHT22;11664;49.774;8.650;2024-03-07T06:30:40;1.60;99.90
22996;DHT22;11664;49.774;8.650;2024-03-07T06:33:06;1.60;99.90
22996;DHT22;11664;49.774;8.650;2024-03-07T06:35:35;1.60;99.90
22996;DHT22;11664;49.774;8.650;2024-03-07T06:38:02;1.70;99.90
22996;DHT22;11664;49.774;8.650;2024-03-07T06:40:29;1.90;99.90
22996;DHT22;11664;49.774;8.650;2024-03-07T06:42:55;2.00;99.90
22996;DHT22;11664;49.774;8.650;2024-03-07T06:45:27;2.00;99.90
22996;DHT22;11664;49.774;8.650;2024-03-07T06:47:52;2.30;99.90
22996;DHT22;11664;49.774;8.650;2024-03-07T06:50:18;2.40;99.90
22996;DHT22;11664;49.774;8.650;2024-03-07T06:52:47;2.40;99.90
22996;DHT22;11664;49.774;8.650;2024-03-07T06:55:17;2.40;99.90
22996;DHT22;11664;49.774;8.650;2024-03-07T06:57:44;2.40;99.90
22996;DHT22;11664;49.774;8.650;2024-03-07T07:00:14;2.50;99.90
22996;DHT22;11664;49.774;8.650;2024-03-07T07:02:44;2.50;99.90
22996;DHT22;11664;49.774;8.650;2024-03-07T07:05:10;2.70;99.90
22996;DHT22;11664;49.774;8.650;2024-03-07T07:07:44;2.80;99.90
22996;DHT22;11664;49.774;8.650;2024-03-07T07:10:11;2.90;99.90
22996;DHT22;11664;49.774;8.650;2024-03-07T07:12:47;3.00;99.90
22996;DHT22;11664;49.774;8.650;2024-03-07T07:15:14;3.00;99.90
22996;DHT22;11664;49.774;8.650;2024-03-07T07:17:41;3.00;99.90
22996;DHT22;11664;49.774;8.650;2024-03-07T07:20:07;3.20;99.90
22996;DHT22;11664;49.774;8.650;2024-03-07T07:22:39;3.30;99.90
22996;DHT22;11664;49.774;8.650;2024-03-07T07:25:06;3.40;99.90
22996;DHT22;11664;49.774;8.650;2024-03-07T07:27:48;3.40;99.90
22996;DHT22;11664;49.774;8.650;2024-03-07T07:30:16;3.40;99.90
22996;DHT22;11664;49.774;8.650;2024-03-07T07:32:43;3.50;99.90
22996;DHT22;11664;49.774;8.650;2024-03-07T07:35:10;3.60;99.90
22996;DHT22;11664;49.774;8.650;2024-03-07T07:37:46;3.80;99.90
22996;DHT22;11664;49.774;8.650;2024-03-07T07:40:16;3.90;99.90
22996;DHT22;11664;49.774;8.650;2024-03-07T07:42:47;4.10;99.90
22996;DHT22;11664;49.774;8.650;2024-03-07T07:45:14;4.20;99.90
22996;DHT22;11664;49.774;8.650;2024-03-07T07:47:42;4.40;99.90
22996;DHT22;11664;49.774;8.650;2024-03-07T07:50:09;4.50;99.90
22996;DHT22;11664;49.774;8.650;2024-03-07T07:52:44;4.60;99.90
22996;DHT22;11664;49.774;8.650;2024-03-07T07:55:10;4.60;99.90
22996;DHT22;11664;49.774;8.650;2024-03-07T07:57:41;4.70;99.90
22996;DHT22;11664;49.774;8.650;2024-03-07T08:00:07;4.80;99.90
22996;DHT22;11664;49.774;8.650;2024-03-07T08:02:35;4.80;99.90
22996;DHT22;11664;49.774;8.650;2024-03-07T08:05:01;5.00;99.90
22996;DHT22;11664;49.774;8.650;2024-03-07T08:07:27;5.10;99.90
22996;DHT22;11664;49.774;8.650;2024-03-07T08:09:52;5.10;99.90
22996;DHT22;11664;49.774;8.650;2024-03-07T08:12:18;5.30;99.90
22996;DHT22;11664;49.774;8.650;2024-03-07T08:14:43;5.30;99.90
22996;DHT22;11664;49.774;8.650;2024-03-07T08:17:10;5.40;99.90
22996;DHT22;11664;49.774;8.650;2024-03-07T08:19:36;5.50;99.90
22996;DHT22;11664;49.774;8.650;2024-03-07T08:22:02;5.60;99.90
22996;DHT22;11664;49.774;8.650;2024-03-07T08:24:27;5.60;99.90
22996;DHT22;11664;49.774;8.650;2024-03-07T08:27:02;5.50;99.90
22996;DHT22;11664;49.774;8.650;2024-03-07T08:29:29;5.40;99.90
22996;DHT22;11664;49.774;8.650;2024-03-07T08:31:54;5.30;99.90
22996;DHT22;11664;49.774;8.650;2024-03-07T08:34:20;5.30;99.90
22996;DHT22;11664;49.774;8.650;2024-03-07T08:36:45;5.30;99.90
22996;DHT22;11664;49.774;8.650;2024-03-07T08:39:12;5.30;99.90
22996;DHT22;11664;49.774;8.650;2024-03-07T08:41:39;5.20;99.90
22996;DHT22;11664;49.774;8.650;2024-03-07T08:44:06;5.30;99.90
22996;DHT22;11664;49.774;8.650;2024-03-07T08:46:33;5.40;99.90
22996;DHT22;11664;49.774;8.650;2024-03-07T08:48:58;5.40;99.90
22996;DHT22;11664;49.774;8.650;2024-03-07T08:51:24;5.40;99.90
22996;DHT22;11664;49.774;8.650;2024-03-07T08:53:49;5.50;99.90
22996;DHT22;11664;49.774;8.650;2024-03-07T08:56:15;5.60;99.90
22996;DHT22;11664;49.774;8.650;2024-03-07T08:58:41;5.70;99.90
22996;DHT22;11664;49.774;8.650;2024-03-07T09:01:08;5.80;99.90
22996;DHT22;11664;49.774;8.650;2024-03-07T09:03:34;5.90;99.90
22996;DHT22;11664;49.774;8.650;2024-03-07T09:06:00;5.90;99.90
22996;DHT22;11664;49.774;8.650;2024-03-07T09:08:25;6.10;99.90
22996;DHT22;11664;49.774;8.650;2024-03-07T09:10:52;6.30;99.90
22996;DHT22;11664;49.774;8.650;2024-03-07T09:13:23;6.40;99.90
22996;DHT22;11664;49.774;8.650;2024-03-07T09:15:48;6.30;99.90
22996;DHT22;11664;49.774;8.650;2024-03-07T09:18:14;6.50;99.90
22996;DHT22;11664;49.774;8.650;2024-03-07T09:20:41;6.50;99.90
22996;DHT22;11664;49.774;8.650;2024-03-07T09:23:06;6.60;99.90
22996;DHT22;11664;49.774;8.650;2024-03-07T09:25:32;6.80;99.90
22996;DHT22;11664;49.774;8.650;2024-03-07T09:27:58;6.70;99.90
22996;DHT22;11664;49.774;8.650;2024-03-07T09:30:25;6.80;99.90
22996;DHT22;11664;49.774;8.650;2024-03-07T09:32:53;6.90;99.90
22996;DHT22;11664;49.774;8.650;2024-03-07T09:35:20;6.80;99.90
22996;DHT22;11664;49.774;8.650;2024-03-07T09:37:46;6.80;99.90
22996;DHT22;11664;49.774;8.650;2024-03-07T09:40:13;6.90;99.90
22996;DHT22;11664;49.774;8.650;2024-03-07T09:42:44;7.30;99.90
22996;DHT22;11664;49.774;8.650;2024-03-07T09:45:17;7.30;99.90
22996;DHT22;11664;49.774;8.650;2024-03-07T09:47:45;7.50;99.90
22996;DHT22;11664;49.774;8.650;2024-03-07T09:50:15;7.70;99.90
22996;DHT22;11664;49.774;8.650;2024-03-07T09:52:41;7.70;99.90
22996;DHT22;11664;49.774;8.650;2024-03-07T09:55:08;7.60;99.90
22996;DHT22;11664;49.774;8.650;2024-03-07T09:57:34;7.50;99.90
22996;DHT22;11664;49.774;8.650;2024-03-07T10:00:02;7.50;99.90
22996;DHT22;11664;49.774;8.650;2024-03-07T10:02:30;7.40;99.90
22996;DHT22;11664;49.774;8.650;2024-03-07T10:04:57;7.50;99.90
22996;DHT22;11664;49.774;8.650;2024-03-07T10:07:23;7.60;99.90
22996;DHT22;11664;49.774;8.650;2024-03-07T10:09:49;7.70;99.90
22996;DHT22;11664;49.774;8.650;2024-03-07T10:12:16;8.00;99.90
22996;DHT22;11664;49.774;8.650;2024-03-07T10:14:50;8.10;99.90
22996;DHT22;11664;49.774;8.650;2024-03-07T10:17:17;7.80;99.90
22996;DHT22;11664;49.774;8.650;2024-03-07T10:19:47;8.00;99.90
22996;DHT22;11664;49.774;8.650;2024-03-07T10:22:14;8.10;99.90
22996;DHT22;11664;49.774;8.650;2024-03-07T10:24:39;7.70;99.90
22996;DHT22;11664;49.774;8.650;2024-03-07T10:27:05;7.80;99.90
22996;DHT22;11664;49.774;8.650;2024-03-07T10:29:31;8.40;99.90
22996;DHT22;11664;49.774;8.650;2024-03-07T10:31:56;8.50;99.90
22996;DHT22;11664;49.774;8.650;2024-03-07T10:34:23;8.40;99.90
22996;DHT22;11664;49.774;8.650;2024-03-07T10:36:50;8.20;99.90
22996;DHT22;11664;49.774;8.650;2024-03-07T10:39:17;8.30;99.90
22996;DHT22;11664;49.774;8.650;2024-03-07T10:41:48;8.70;99.90
22996;DHT22;11664;49.774;8.650;2024-03-07T10:44:21;9.00;99.90
22996;DHT22;11664;49.774;8.650;2024-03-07T10:47:16;8.90;99.90
22996;DHT22;11664;49.774;8.650;2024-03-07T10:52:29;8.90;99.90
22996;DHT22;11664;49.774;8.650;2024-03-07T10:55:18;9.10;99.90
22996;DHT22;11664;49.774;8.650;2024-03-07T10:57:58;9.80;99.90
22996;DHT22;11664;49.774;8.650;2024-03-07T11:00:26;10.00;99.90
22996;DHT22;11664;49.774;8.650;2024-03-07T11:02:57;9.70;99.90
22996;DHT22;11664;49.774;8.650;2024-03-07T11:05:26;9.70;99.90
22996;DHT22;11664;49.774;8.650;2024-03-07T11:07:57;9.30;99.90
22996;DHT22;11664;49.774;8.650;2024-03-07T11:10:24;9.40;99.90
22996;DHT22;11664;49.774;8.650;2024-03-07T11:12:50;9.30;99.90
22996;DHT22;11664;49.774;8.650;2024-03-07T11:15:18;9.70;99.90
22996;DHT22;11664;49.774;8.650;2024-03-07T11:17:49;9.10;99.90
22996;DHT22;11664;49.774;8.650;2024-03-07T11:20:22;9.50;99.90
22996;DHT22;11664;49.774;8.650;2024-03-07T11:22:48;9.70;99.90
22996;DHT22;11664;49.774;8.650;2024-03-07T11:25:17;10.00;99.90
22996;DHT22;11664;49.774;8.650;2024-03-07T11:27:57;9.80;99.90
22996;DHT22;11664;49.774;8.650;2024-03-07T11:30:24;9.90;99.90
22996;DHT22;11664;49.774;8.650;2024-03-07T11:32:50;10.20;99.90
22996;DHT22;11664;49.774;8.650;2024-03-07T11:35:19;10.40;99.90
22996;DHT22;11664;49.774;8.650;2024-03-07T11:37:56;10.40;99.90
22996;DHT22;11664;49.774;8.650;2024-03-07T11:42:50;10.10;99.90
22996;DHT22;11664;49.774;8.650;2024-03-07T11:45:19;10.10;99.90
22996;DHT22;11664;49.774;8.650;2024-03-07T11:47:58;9.50;99.90
22996;DHT22;11664;49.774;8.650;2024-03-07T11:50:32;9.90;99.90
22996;DHT22;11664;49.774;8.650;2024-03-07T11:53:01;10.40;99.90
22996;DHT22;11664;49.774;8.650;2024-03-07T11:55:27;9.80;99.90
22996;DHT22;11664;49.774;8.650;2024-03-07T11:57:59;10.70;99.90
22996;DHT22;11664;49.774;8.650;2024-03-07T12:00:25;10.90;99.90
22996;DHT22;11664;49.774;8.650;2024-03-07T12:02:54;10.60;99.90
22996;DHT22;11664;49.774;8.650;2024-03-07T12:05:20;10.60;99.90
22996;DHT22;11664;49.774;8.650;2024-03-07T12:07:45;10.80;99.90
22996;DHT22;11664;49.774;8.650;2024-03-07T12:10:11;10.50;99.90
22996;DHT22;11664;49.774;8.650;2024-03-07T12:12:36;10.40;99.90
22996;DHT22;11664;49.774;8.650;2024-03-07T12:15:06;10.70;99.90
22996;DHT22;11664;49.774;8.650;2024-03-07T12:17:41;11.00;99.90
22996;DHT22;11664;49.774;8.650;2024-03-07T12:20:07;11.00;99.90
22996;DHT22;11664;49.774;8.650;2024-03-07T12:22:56;10.70;99.90
22996;DHT22;11664;49.774;8.650;2024-03-07T12:25:22;10.60;99.90
22996;DHT22;11664;49.774;8.650;2024-03-07T12:28:07;10.80;99.90
22996;DHT22;11664;49.774;8.650;2024-03-07T12:30:54;10.70;99.90
22996;DHT22;11664;49.774;8.650;2024-03-07T12:33:21;10.80;99.90
22996;DHT22;11664;49.774;8.650;2024-03-07T12:35:49;11.00;99.90
22996;DHT22;11664;49.774;8.650;2024-03-07T12:38:17;11.80;99.90
22996;DHT22;11664;49.774;8.650;2024-03-07T12:40:43;11.80;99.90
22996;DHT22;11664;49.774;8.650;2024-03-07T12:43:19;11.10;99.90
22996;DHT22;11664;49.774;8.650;2024-03-07T12:48:16;11.20;99.90
22996;DHT22;11664;49.774;8.650;2024-03-07T12:50:44;11.10;99.90
22996;DHT22;11664;49.774;8.650;2024-03-07T12:53:10;11.00;99.90
22996;DHT22;11664;49.774;8.650;2024-03-07T12:55:41;11.10;99.90
22996;DHT22;11664;49.774;8.650;2024-03-07T12:58:08;11.10;99.90
22996;DHT22;11664;49.774;8.650;2024-03-07T13:00:35;10.70;99.90
22996;DHT22;11664;49.774;8.650;2024-03-07T13:03:01;10.50;99.90
22996;DHT22;11664;49.774;8.650;2024-03-07T13:05:28;10.60;99.90
22996;DHT22;11664;49.774;8.650;2024-03-07T13:07:53;11.00;99.90
22996;DHT22;11664;49.774;8.650;2024-03-07T13:10:19;11.00;99.90
22996;DHT22;11664;49.774;8.650;2024-03-07T13:12:46;10.80;99.90
22996;DHT22;11664;49.774;8.650;2024-03-07T13:15:14;11.40;99.90
22996;DHT22;11664;49.774;8.650;2024-03-07T13:17:40;12.00;99.90
22996;DHT22;11664;49.774;8.650;2024-03-07T13:20:11;12.70;99.90
22996;DHT22;11664;49.774;8.650;2024-03-07T13:22:40;12.20;99.90
22996;DHT22;11664;49.774;8.650;2024-03-07T13:25:08;11.70;99.90
22996;DHT22;11664;49.774;8.650;2024-03-07T13:27:41;12.30;99.90
22996;DHT22;11664;49.774;8.650;2024-03-07T13:30:07;12.60;99.90
22996;DHT22;11664;49.774;8.650;2024-03-07T13:32:33;13.60;99.90
22996;DHT22;11664;49.774;8.650;2024-03-07T13:34:58;14.40;99.90
22996;DHT22;11664;49.774;8.650;2024-03-07T13:37:27;15.10;99.40
22996;DHT22;11664;49.774;8.650;2024-03-07T13:39:52;14.80;97.60
22996;DHT22;11664;49.774;8.650;2024-03-07T13:42:18;14.30;98.30
22996;DHT22;11664;49.774;8.650;2024-03-07T13:44:43;14.90;96.60
22996;DHT22;11664;49.774;8.650;2024-03-07T13:47:10;15.20;97.00
22996;DHT22;11664;49.774;8.650;2024-03-07T13:49:36;15.40;94.30
22996;DHT22;11664;49.774;8.650;2024-03-07T13:52:03;15.60;94.70
22996;DHT22;11664;49.774;8.650;2024-03-07T13:54:36;14.30;96.70
22996;DHT22;11664;49.774;8.650;2024-03-07T13:59:54;14.00;98.40
22996;DHT22;11664;49.774;8.650;2024-03-07T14:05:34;12.80;99.30
22996;DHT22;11664;49.774;8.650;2024-03-07T14:08:32;12.40;97.20
22996;DHT22;11664;49.774;8.650;2024-03-07T14:14:30;13.80;97.40
22996;DHT22;11664;49.774;8.650;2024-03-07T14:31:05;12.50;99.20
22996;DHT22;11664;49.774;8.650;2024-03-07T14:34:00;11.90;98.80
22996;DHT22;11664;49.774;8.650;2024-03-07T14:36:44;11.70;99.90
22996;DHT22;11664;49.774;8.650;2024-03-07T14:39:14;11.20;99.90
22996;DHT22;11664;49.774;8.650;2024-03-07T14:44:18;11.40;99.90
22996;DHT22;11664;49.774;8.650;2024-03-07T14:46:50;11.10;99.90
22996;DHT22;11664;49.774;8.650;2024-03-07T14:49:18;11.00;99.90
22996;DHT22;11664;49.774;8.650;2024-03-07T14:51:46;10.90;99.90
22996;DHT22;11664;49.774;8.650;2024-03-07T14:54:15;10.70;99.90
22996;DHT22;11664;49.774;8.650;2024-03-07T14:56:40;10.50;99.90
22996;DHT22;11664;49.774;8.650;2024-03-07T14:59:06;10.20;99.90
22996;DHT22;11664;49.774;8.650;2024-03-07T15:01:32;10.30;99.90
22996;DHT22;11664;49.774;8.650;2024-03-07T15:04:00;10.20;99.90
22996;DHT22;11664;49.774;8.650;2024-03-07T15:06:29;10.20;99.90
22996;DHT22;11664;49.774;8.650;2024-03-07T15:08:57;10.20;99.90
22996;DHT22;11664;49.774;8.650;2024-03-07T15:11:31;10.20;99.90
22996;DHT22;11664;49.774;8.650;2024-03-07T15:13:58;10.00;99.90
22996;DHT22;11664;49.774;8.650;2024-03-07T15:16:25;9.90;99.90
22996;DHT22;11664;49.774;8.650;2024-03-07T15:18:51;10.00;99.90
22996;DHT22;11664;49.774;8.650;2024-03-07T15:21:17;9.90;99.90
22996;DHT22;11664;49.774;8.650;2024-03-07T15:23:42;9.80;99.90
22996;DHT22;11664;49.774;8.650;2024-03-07T15:26:08;9.70;99.90
22996;DHT22;11664;49.774;8.650;2024-03-07T15:28:34;9.70;99.90
22996;DHT22;11664;49.774;8.650;2024-03-07T15:31:01;9.70;99.90
22996;DHT22;11664;49.774;8.650;2024-03-07T15:33:32;9.70;99.90
22996;DHT22;11664;49.774;8.650;2024-03-07T15:35:57;9.70;99.90
22996;DHT22;11664;49.774;8.650;2024-03-07T15:38:23;9.70;99.90
22996;DHT22;11664;49.774;8.650;2024-03-07T15:40:48;9.60;99.90
22996;DHT22;11664;49.774;8.650;2024-03-07T15:43:15;9.60;99.90
22996;DHT22;11664;49.774;8.650;2024-03-07T15:45:41;9.60;99.90
22996;DHT22;11664;49.774;8.650;2024-03-07T15:48:07;9.50;99.90
22996;DHT22;11664;49.774;8.650;2024-03-07T15:50:36;9.50;99.90
22996;DHT22;11664;49.774;8.650;2024-03-07T15:53:03;9.50;99.90
22996;DHT22;11664;49.774;8.650;2024-03-07T15:55:31;9.50;99.90
22996;DHT22;11664;49.774;8.650;2024-03-07T15:58:00;9.50;99.90
22996;DHT22;11664;49.774;8.650;2024-03-07T16:00:30;9.40;99.90
22996;DHT22;11664;49.774;8.650;2024-03-07T16:03:00;9.50;99.90
22996;DHT22;11664;49.774;8.650;2024-03-07T16:05:27;9.50;99.90
22996;DHT22;11664;49.774;8.650;2024-03-07T16:07:54;9.40;99.90
22996;DHT22;11664;49.774;8.650;2024-03-07T16:10:28;9.30;99.90
22996;DHT22;11664;49.774;8.650;2024-03-07T16:12:56;9.40;99.90
22996;DHT22;11664;49.774;8.650;2024-03-07T16:15:23;9.30;99.90
22996;DHT22;11664;49.774;8.650;2024-03-07T16:17:49;9.30;99.90
22996;DHT22;11664;49.774;8.650;2024-03-07T16:20:15;9.20;99.90